Terminal Aerodrome Forecast
Issued by NWS

Home | Current Version | Previous Version | Text Only | Print | Product List | Glossary On
Versions: 1 2 3 4 5 6 7 8 9 10 11 12 13 14 15 16 17 18 19
000
FTUS41 KGYX 230212 AAA
TAFRKD
TAF AMD
KRKD 230212Z 2302/2324 05009G18KT 3SM -SN BR OVC015
      TEMPO 2302/2306 3/4SM -SNPL BR OVC005
     FM231000 08010KT 2SM -FZDZ OVC007
     FM231500 15010G20KT 4SM -RA BR OVC005 WS020/19040KT
      AMD LTD TO CLD VIS AND WIND=

USA.gov is the U.S. government's official web portal to all federal, state and local government web resources and services.